createdAt,value
2023-02-07T00:00:56.364Z,5.20
2023-02-07T00:03:23.571Z,8.17
2023-02-07T00:05:50.793Z,7.37
2023-02-07T00:08:17.958Z,4.80
2023-02-07T00:10:45.085Z,9.50
2023-02-07T00:13:12.250Z,7.10
2023-02-07T00:15:39.675Z,5.60
2023-02-07T00:18:06.989Z,4.00
2023-02-07T00:20:34.092Z,6.63
2023-02-07T00:23:01.320Z,7.87
2023-02-07T00:25:28.430Z,5.07
2023-02-07T00:27:55.697Z,4.83
2023-02-07T00:30:23.031Z,7.20
2023-02-07T00:32:50.205Z,6.17
2023-02-07T00:35:18.972Z,6.20
2023-02-07T00:37:46.137Z,4.87
2023-02-07T00:40:13.321Z,4.83
2023-02-07T00:42:40.464Z,6.83
2023-02-07T00:45:08.021Z,4.73
2023-02-07T00:47:35.212Z,6.30
2023-02-07T00:50:02.409Z,6.23
2023-02-07T00:52:29.531Z,5.03
2023-02-07T00:54:56.706Z,5.03
2023-02-07T00:57:23.895Z,5.00
2023-02-07T00:59:50.992Z,5.20
2023-02-07T01:02:18.106Z,6.20
2023-02-07T01:04:45.342Z,5.83
2023-02-07T01:07:12.548Z,5.03
2023-02-07T01:09:40.321Z,6.43
2023-02-07T01:12:07.656Z,5.17
2023-02-07T01:14:34.865Z,5.57
2023-02-07T01:17:02.000Z,6.03
2023-02-07T01:19:29.085Z,6.00
2023-02-07T01:21:59.100Z,8.00
2023-02-07T01:24:26.343Z,5.40
2023-02-07T01:26:53.473Z,5.93
2023-02-07T01:29:20.576Z,6.27
2023-02-07T01:31:47.992Z,5.50
2023-02-07T01:34:15.226Z,5.73
2023-02-07T01:36:42.680Z,4.63
2023-02-07T01:39:09.892Z,5.80
2023-02-07T01:41:37.362Z,5.30
2023-02-07T01:44:28.684Z,4.40
2023-02-07T01:46:56.932Z,4.40
2023-02-07T01:49:32.513Z,5.90
2023-02-07T01:52:04.825Z,5.30
2023-02-07T01:54:33.683Z,6.63
2023-02-07T01:57:09.445Z,5.27
2023-02-07T01:59:39.158Z,6.17
2023-02-07T02:02:06.485Z,4.43
2023-02-07T02:04:33.631Z,5.23
2023-02-07T02:07:00.863Z,5.30
2023-02-07T02:09:29.555Z,5.20
2023-02-07T02:12:18.462Z,5.50
2023-02-07T02:15:00.623Z,6.67
2023-02-07T02:17:48.603Z,5.07
2023-02-07T02:20:54.212Z,4.77
2023-02-07T02:23:36.673Z,4.97
2023-02-07T02:26:09.821Z,5.20
2023-02-07T02:28:42.972Z,5.40
2023-02-07T02:31:28.701Z,7.70
2023-02-07T02:34:22.775Z,4.90
2023-02-07T02:36:58.065Z,4.80
2023-02-07T02:39:51.859Z,6.50
2023-02-07T02:42:34.812Z,6.03
2023-02-07T02:45:13.996Z,8.70
2023-02-07T02:47:45.220Z,4.73
2023-02-07T02:50:14.195Z,5.73
2023-02-07T02:52:50.541Z,4.23
2023-02-07T02:55:41.316Z,4.77
2023-02-07T02:58:23.089Z,4.63
2023-02-07T03:01:17.882Z,4.57
2023-02-07T03:04:17.985Z,5.40
2023-02-07T03:07:06.340Z,3.70
2023-02-07T03:10:01.947Z,5.33
2023-02-07T03:12:35.289Z,4.40
2023-02-07T03:15:24.475Z,4.40
2023-02-07T03:17:59.944Z,5.07
2023-02-07T03:20:32.177Z,3.67
2023-02-07T03:23:02.368Z,4.67
2023-02-07T03:25:30.828Z,3.67
2023-02-07T03:27:58.324Z,3.70
2023-02-07T03:30:31.690Z,5.90
2023-02-07T03:33:05.182Z,5.03
2023-02-07T03:36:03.025Z,4.13
2023-02-07T03:38:30.482Z,7.83
2023-02-07T03:41:02.004Z,3.90
2023-02-07T03:43:32.414Z,4.47
2023-02-07T03:45:59.703Z,6.30
2023-02-07T03:48:26.855Z,4.00
2023-02-07T03:50:54.006Z,8.60
2023-02-07T03:53:21.514Z,4.00
2023-02-07T03:55:48.857Z,3.80
2023-02-07T03:58:15.992Z,4.93
2023-02-07T04:00:43.192Z,4.70
2023-02-07T04:03:10.594Z,3.63
2023-02-07T04:05:38.312Z,3.47
2023-02-07T04:08:05.748Z,4.30
2023-02-07T04:10:32.906Z,4.33
2023-02-07T04:13:00.198Z,5.33
2023-02-07T04:15:27.538Z,4.03
2023-02-07T04:17:54.704Z,4.47
2023-02-07T04:20:21.954Z,8.17
2023-02-07T04:22:49.231Z,4.23
2023-02-07T04:25:16.840Z,4.93
2023-02-07T04:27:44.074Z,5.23
2023-02-07T04:30:12.142Z,4.20
2023-02-07T04:32:39.359Z,7.37
2023-02-07T04:35:06.946Z,4.93
2023-02-07T04:37:34.182Z,4.60
2023-02-07T04:40:01.434Z,4.13
2023-02-07T04:42:28.581Z,4.10
2023-02-07T04:44:55.803Z,4.90
2023-02-07T04:47:23.086Z,5.03
2023-02-07T04:49:50.266Z,4.30
2023-02-07T04:52:17.414Z,3.30
2023-02-07T04:54:44.664Z,4.17
2023-02-07T04:57:11.955Z,3.87
2023-02-07T04:59:39.197Z,3.50
2023-02-07T05:02:06.354Z,4.13
2023-02-07T05:04:33.585Z,4.23
2023-02-07T05:07:00.744Z,5.77
2023-02-07T05:09:27.857Z,4.57
2023-02-07T05:11:55.040Z,4.33
2023-02-07T05:14:22.214Z,7.73
2023-02-07T05:16:49.497Z,4.27
2023-02-07T05:19:16.704Z,3.10
2023-02-07T05:21:43.841Z,5.17
2023-02-07T05:24:10.973Z,3.50
2023-02-07T05:26:40.093Z,6.13
2023-02-07T05:29:07.517Z,3.83
2023-02-07T05:31:53.322Z,3.90
2023-02-07T05:34:20.573Z,4.77
2023-02-07T05:36:47.714Z,4.60
2023-02-07T05:39:14.907Z,2.97
2023-02-07T05:41:42.202Z,3.40
2023-02-07T05:44:09.365Z,5.93
2023-02-07T05:46:36.600Z,5.33
2023-02-07T05:49:04.514Z,4.90
2023-02-07T05:51:31.701Z,3.43
2023-02-07T05:53:58.874Z,3.10
2023-02-07T05:56:26.043Z,3.63
2023-02-07T05:58:53.770Z,4.17
2023-02-07T06:01:20.921Z,7.50
2023-02-07T06:03:48.104Z,5.03
2023-02-07T06:06:15.273Z,6.37
2023-02-07T06:08:42.481Z,6.07
2023-02-07T06:11:09.678Z,4.50
2023-02-07T06:13:36.888Z,5.43
2023-02-07T06:16:04.651Z,5.17
2023-02-07T06:18:31.859Z,6.33
2023-02-07T06:20:58.983Z,7.10
2023-02-07T06:23:26.197Z,5.80
2023-02-07T06:25:53.415Z,6.00
2023-02-07T06:28:20.652Z,4.27
2023-02-07T06:30:48.038Z,10.43
2023-02-07T06:33:15.246Z,7.93
2023-02-07T06:35:47.271Z,5.73
2023-02-07T06:38:16.614Z,4.00
2023-02-07T06:40:44.697Z,5.10
2023-02-07T06:43:12.292Z,4.40
2023-02-07T06:45:39.708Z,3.97
2023-02-07T06:48:07.648Z,4.70
2023-02-07T06:50:34.874Z,6.37
2023-02-07T06:53:02.231Z,5.03
2023-02-07T06:55:31.087Z,5.00
2023-02-07T06:57:58.257Z,4.33
2023-02-07T07:00:25.535Z,3.10
2023-02-07T07:02:53.058Z,5.93
2023-02-07T07:05:20.261Z,5.20
2023-02-07T07:07:48.546Z,4.77
2023-02-07T07:10:15.787Z,5.23
2023-02-07T07:12:43.103Z,9.00
2023-02-07T07:15:10.459Z,6.20
2023-02-07T07:17:37.661Z,7.27
2023-02-07T07:20:07.711Z,8.47
2023-02-07T07:22:35.457Z,5.53
2023-02-07T07:25:02.858Z,7.33
2023-02-07T07:27:30.045Z,7.00
2023-02-07T07:29:57.182Z,6.20
2023-02-07T07:32:33.654Z,5.00
2023-02-07T07:35:02.518Z,6.90
2023-02-07T07:37:29.773Z,6.43
2023-02-07T07:39:57.237Z,5.13
2023-02-07T07:42:24.544Z,6.07
2023-02-07T07:44:51.730Z,4.40
2023-02-07T07:47:19.180Z,5.73
2023-02-07T07:49:46.370Z,7.23
2023-02-07T07:52:13.784Z,9.67
2023-02-07T07:54:41.046Z,7.23
2023-02-07T07:57:08.172Z,5.93
2023-02-07T07:59:35.381Z,6.33
2023-02-07T08:02:02.500Z,5.30
2023-02-07T08:04:29.818Z,5.07
2023-02-07T08:06:57.757Z,7.83
2023-02-07T08:09:24.923Z,5.07
2023-02-07T08:11:52.051Z,5.30
2023-02-07T08:14:19.246Z,4.23
2023-02-07T08:16:46.434Z,3.67
2023-02-07T08:19:13.570Z,6.10
2023-02-07T08:21:40.713Z,4.93
2023-02-07T08:24:07.952Z,10.30
2023-02-07T08:26:35.193Z,6.20
2023-02-07T08:29:02.326Z,7.60
2023-02-07T08:31:29.681Z,4.10
2023-02-07T08:33:56.913Z,3.60
2023-02-07T08:36:24.247Z,6.03
2023-02-07T08:38:52.335Z,4.97
2023-02-07T08:41:19.587Z,6.07
2023-02-07T08:43:46.759Z,4.50
2023-02-07T08:46:14.010Z,4.57
2023-02-07T08:48:41.392Z,4.43
2023-02-07T08:51:09.670Z,4.70
2023-02-07T08:53:36.905Z,4.50
2023-02-07T08:56:04.666Z,4.93
2023-02-07T08:58:32.121Z,5.47
2023-02-07T09:00:59.311Z,5.83
2023-02-07T09:03:26.458Z,6.43
2023-02-07T09:05:59.170Z,6.77
2023-02-07T09:08:26.323Z,5.33
2023-02-07T09:10:53.575Z,5.23
2023-02-07T09:13:20.807Z,5.00
2023-02-07T09:15:54.763Z,6.20
2023-02-07T09:18:22.390Z,4.50
2023-02-07T09:20:49.601Z,5.40
2023-02-07T09:23:19.572Z,5.97
2023-02-07T09:25:52.611Z,4.97
2023-02-07T09:28:22.405Z,6.93
2023-02-07T09:30:50.440Z,5.60
2023-02-07T09:33:18.018Z,5.10
2023-02-07T09:35:47.111Z,4.20
2023-02-07T09:38:18.048Z,4.07
2023-02-07T09:40:47.514Z,3.97
2023-02-07T09:43:45.649Z,5.00
2023-02-07T09:46:23.293Z,6.27
2023-02-07T09:49:05.487Z,4.77
2023-02-07T09:51:34.864Z,6.17
2023-02-07T09:54:06.473Z,4.23
2023-02-07T09:56:36.033Z,4.13
2023-02-07T09:59:24.861Z,3.20
2023-02-07T10:02:01.500Z,4.60
2023-02-07T10:04:41.662Z,3.83
2023-02-07T10:07:13.283Z,5.30
2023-02-07T10:09:45.854Z,4.47
2023-02-07T10:12:40.464Z,6.70
2023-02-07T10:15:39.703Z,4.40
2023-02-07T10:18:21.977Z,4.27
2023-02-07T10:21:25.132Z,4.00
2023-02-07T10:24:04.585Z,4.77
2023-02-07T10:26:42.288Z,5.03
2023-02-07T10:29:23.335Z,5.10
2023-02-07T10:31:53.682Z,9.23
2023-02-07T10:34:27.877Z,4.77
2023-02-07T10:36:57.668Z,4.10
2023-02-07T10:39:40.261Z,6.00
2023-02-07T10:42:15.630Z,4.27
2023-02-07T10:44:43.419Z,4.07
2023-02-07T10:47:16.760Z,5.30
2023-02-07T10:49:48.473Z,6.00
2023-02-07T10:52:35.531Z,5.40
2023-02-07T10:55:06.575Z,4.90
2023-02-07T10:57:33.871Z,6.10
2023-02-07T11:00:23.592Z,5.17
2023-02-07T11:02:55.705Z,7.47
2023-02-07T11:05:22.810Z,5.73
2023-02-07T11:08:01.666Z,4.87
2023-02-07T11:10:40.017Z,4.40
2023-02-07T11:13:21.317Z,4.63
2023-02-07T11:15:54.048Z,5.03
2023-02-07T11:18:53.780Z,10.10
2023-02-07T11:21:24.191Z,5.00
2023-02-07T11:23:55.172Z,4.60
2023-02-07T11:26:23.489Z,5.33
2023-02-07T11:29:03.495Z,9.93
2023-02-07T11:31:34.949Z,4.70
2023-02-07T11:34:50.740Z,4.33
2023-02-07T11:37:37.521Z,6.17
2023-02-07T11:40:39.218Z,4.90
2023-02-07T11:43:09.405Z,4.20
2023-02-07T11:45:39.361Z,3.97
2023-02-07T11:48:07.607Z,4.57
2023-02-07T11:50:41.107Z,4.23
2023-02-07T11:53:44.485Z,4.40
2023-02-07T11:56:29.579Z,4.80
2023-02-07T11:58:58.672Z,6.10
2023-02-07T12:01:30.221Z,9.40
2023-02-07T12:04:08.803Z,5.30
2023-02-07T12:06:44.587Z,4.40
2023-02-07T12:09:45.699Z,8.40
2023-02-07T12:12:39.094Z,5.00
2023-02-07T12:15:18.022Z,5.47
2023-02-07T12:18:05.598Z,6.30
2023-02-07T12:20:36.973Z,7.47
2023-02-07T12:23:39.115Z,5.10
2023-02-07T12:26:01.372Z,5.97
2023-02-07T12:28:49.286Z,5.90
2023-02-07T12:31:41.338Z,4.20
2023-02-07T12:34:21.127Z,3.40
2023-02-07T12:36:54.250Z,5.70
2023-02-07T12:39:42.564Z,3.50
2023-02-07T12:42:29.749Z,4.10
2023-02-07T12:45:00.565Z,5.40
2023-02-07T12:47:42.445Z,4.30
2023-02-07T12:50:20.257Z,5.27
2023-02-07T12:53:31.911Z,8.53
2023-02-07T12:56:02.637Z,7.60
2023-02-07T12:58:40.394Z,6.83
2023-02-07T13:01:36.929Z,4.13
2023-02-07T13:04:17.649Z,6.43
2023-02-07T13:07:10.852Z,8.60
2023-02-07T13:10:07.089Z,4.33
2023-02-07T13:13:03.009Z,4.27
2023-02-07T13:15:49.407Z,4.60
2023-02-07T13:18:34.897Z,5.90
2023-02-07T13:21:11.282Z,6.60
2023-02-07T13:23:43.786Z,8.43
2023-02-07T13:26:17.125Z,3.67
2023-02-07T13:28:46.738Z,3.63
2023-02-07T13:31:19.419Z,4.53
2023-02-07T13:33:49.015Z,3.77
2023-02-07T13:36:41.289Z,4.83
2023-02-07T13:39:47.574Z,2.83
2023-02-07T13:42:56.328Z,3.40
2023-02-07T13:45:56.061Z,4.20
2023-02-07T13:48:51.270Z,3.27
2023-02-07T13:51:45.466Z,2.50
2023-02-07T13:54:54.087Z,2.90
2023-02-07T13:57:54.303Z,4.17
2023-02-07T14:00:25.191Z,9.17
2023-02-07T14:03:21.272Z,3.20
2023-02-07T14:05:48.585Z,3.37
2023-02-07T14:08:18.802Z,3.83
2023-02-07T14:10:56.706Z,5.10
2023-02-07T14:13:34.935Z,4.47
2023-02-07T14:16:04.179Z,3.23
2023-02-07T14:18:38.579Z,3.17
2023-02-07T14:21:19.047Z,3.40
2023-02-07T14:24:04.682Z,4.60
2023-02-07T14:26:40.672Z,4.07
2023-02-07T14:29:23.111Z,4.90
2023-02-07T14:31:54.569Z,4.30
2023-02-07T14:34:24.881Z,3.73
2023-02-07T14:36:55.023Z,5.03
2023-02-07T14:39:33.499Z,4.10
2023-02-07T14:42:17.822Z,7.57
2023-02-07T14:44:48.133Z,14.70
2023-02-07T14:47:28.351Z,5.80
2023-02-07T14:50:00.374Z,7.50
2023-02-07T14:52:31.256Z,4.33
2023-02-07T14:55:02.580Z,5.03
2023-02-07T14:57:57.699Z,6.83
2023-02-07T15:00:31.525Z,5.50
2023-02-07T15:03:05.311Z,5.70
2023-02-07T15:05:38.042Z,7.20
2023-02-07T15:08:26.487Z,6.53
2023-02-07T15:11:10.946Z,5.90
2023-02-07T15:13:54.537Z,6.50
2023-02-07T15:16:31.649Z,4.93
2023-02-07T15:19:19.566Z,7.00
2023-02-07T15:21:49.558Z,5.00
2023-02-07T15:24:39.817Z,8.90
2023-02-07T15:27:21.962Z,5.00
2023-02-07T15:30:00.924Z,5.13
2023-02-07T15:32:31.275Z,5.30
2023-02-07T15:35:07.176Z,5.20
2023-02-07T15:37:34.342Z,5.13
2023-02-07T15:40:01.634Z,5.50
2023-02-07T15:42:28.807Z,6.70
2023-02-07T15:44:57.780Z,11.70
2023-02-07T15:47:27.961Z,11.50
2023-02-07T15:50:00.042Z,13.60
2023-02-07T15:52:41.787Z,14.13
2023-02-07T15:55:33.022Z,18.20
2023-02-07T15:58:01.107Z,10.70
2023-02-07T16:00:31.334Z,11.73
2023-02-07T16:03:07.493Z,9.77
2023-02-07T16:05:39.374Z,11.27
2023-02-07T16:08:27.660Z,12.67
2023-02-07T16:10:54.923Z,11.10
2023-02-07T16:13:22.994Z,9.87
2023-02-07T16:16:08.140Z,10.60
2023-02-07T16:18:46.616Z,10.90
2023-02-07T16:21:19.656Z,9.70
2023-02-07T16:23:49.431Z,7.57
2023-02-07T16:26:19.548Z,8.13
2023-02-07T16:28:47.585Z,9.83
2023-02-07T16:31:14.910Z,13.93
2023-02-07T16:33:42.248Z,13.57
2023-02-07T16:36:18.975Z,10.13
2023-02-07T16:38:46.344Z,10.37
2023-02-07T16:41:32.014Z,10.17
2023-02-07T16:44:06.179Z,9.37
2023-02-07T16:46:34.199Z,8.43
2023-02-07T16:49:01.504Z,7.60
2023-02-07T16:51:28.749Z,6.80
2023-02-07T16:53:55.974Z,8.90
2023-02-07T16:56:28.002Z,8.47
2023-02-07T16:58:55.201Z,9.20
2023-02-07T17:01:23.107Z,7.77
2023-02-07T17:03:50.341Z,6.03
2023-02-07T17:06:19.497Z,8.60
2023-02-07T17:08:47.848Z,6.60
2023-02-07T17:11:25.008Z,9.30
2023-02-07T17:13:59.483Z,17.77
2023-02-07T17:16:27.882Z,9.93
2023-02-07T17:18:55.064Z,8.83
2023-02-07T17:21:23.823Z,7.80
2023-02-07T17:23:51.291Z,9.20
2023-02-07T17:26:23.496Z,5.37
2023-02-07T17:28:55.026Z,8.43
2023-02-07T17:31:23.026Z,6.20
2023-02-07T17:33:51.629Z,8.10
2023-02-07T17:36:19.933Z,6.70
2023-02-07T17:38:47.176Z,5.33
2023-02-07T17:41:16.428Z,16.60
2023-02-07T17:43:43.576Z,7.40
2023-02-07T17:46:20.561Z,7.87
2023-02-07T17:48:49.468Z,17.53
2023-02-07T17:51:18.706Z,10.63
2023-02-07T17:53:46.795Z,20.40
2023-02-07T17:56:20.292Z,12.70
2023-02-07T17:58:47.525Z,15.60
2023-02-07T18:01:19.307Z,19.13
2023-02-07T18:03:47.842Z,19.17
2023-02-07T18:06:17.554Z,18.53
2023-02-07T18:08:45.998Z,16.50
2023-02-07T18:11:14.391Z,18.10
2023-02-07T18:13:43.396Z,12.53
2023-02-07T18:16:16.239Z,11.40
2023-02-07T18:18:43.460Z,11.93
2023-02-07T18:21:12.727Z,13.10
2023-02-07T18:23:43.051Z,12.93
2023-02-07T18:26:12.464Z,9.30
2023-02-07T18:28:39.570Z,11.23
2023-02-07T18:31:18.962Z,10.33
2023-02-07T18:33:46.718Z,10.43
2023-02-07T18:36:14.771Z,8.13
2023-02-07T18:38:42.059Z,9.90
2023-02-07T18:41:21.125Z,9.40
2023-02-07T18:43:49.579Z,9.03
2023-02-07T18:46:19.134Z,15.03
2023-02-07T18:48:49.721Z,11.67
2023-02-07T18:51:18.400Z,11.10
2023-02-07T18:53:45.769Z,14.13
2023-02-07T18:56:15.705Z,10.83
2023-02-07T18:58:44.282Z,9.80
2023-02-07T19:01:15.225Z,13.33
2023-02-07T19:03:44.083Z,16.43
2023-02-07T19:06:11.434Z,15.60
2023-02-07T19:08:40.279Z,16.87
2023-02-07T19:11:08.825Z,17.60
2023-02-07T19:13:36.126Z,16.73
2023-02-07T19:16:15.333Z,19.30
2023-02-07T19:18:42.610Z,16.07
2023-02-07T19:21:20.873Z,17.33
2023-02-07T19:23:48.189Z,15.43
2023-02-07T19:26:15.463Z,15.30
2023-02-07T19:28:42.703Z,16.93
2023-02-07T19:31:17.568Z,17.80
2023-02-07T19:33:45.364Z,16.37
2023-02-07T19:36:13.163Z,18.90
2023-02-07T19:38:40.581Z,13.93
2023-02-07T19:41:08.674Z,19.00
2023-02-07T19:43:36.466Z,14.83
2023-02-07T19:46:03.763Z,13.00
2023-02-07T19:48:31.245Z,12.07
2023-02-07T19:51:00.605Z,11.93
2023-02-07T19:53:29.065Z,8.03
2023-02-07T19:56:05.452Z,9.47
2023-02-07T19:58:33.817Z,12.03
2023-02-07T20:01:01.766Z,9.60
2023-02-07T20:03:29.183Z,12.63
2023-02-07T20:06:00.755Z,8.53
2023-02-07T20:08:28.742Z,18.10
2023-02-07T20:10:55.987Z,9.47
2023-02-07T20:13:23.131Z,10.87
2023-02-07T20:15:50.353Z,7.33
2023-02-07T20:18:17.882Z,9.30
2023-02-07T20:20:48.087Z,7.60
2023-02-07T20:23:15.559Z,8.47
2023-02-07T20:25:42.711Z,9.17
2023-02-07T20:28:09.886Z,9.03
2023-02-07T20:30:44.147Z,7.80
2023-02-07T20:33:11.332Z,5.37
2023-02-07T20:35:39.293Z,6.93
2023-02-07T20:38:06.494Z,6.77
2023-02-07T20:40:33.686Z,9.07
2023-02-07T20:43:00.834Z,7.03
2023-02-07T20:45:28.617Z,7.73
2023-02-07T20:47:56.041Z,6.30
2023-02-07T20:50:23.571Z,5.43
2023-02-07T20:52:50.770Z,5.20
2023-02-07T20:55:18.736Z,4.97
2023-02-07T20:57:46.108Z,7.20
2023-02-07T21:00:14.014Z,7.50
2023-02-07T21:02:41.232Z,10.20
2023-02-07T21:05:08.711Z,6.50
2023-02-07T21:07:35.889Z,6.40
2023-02-07T21:10:04.119Z,8.50
2023-02-07T21:12:32.614Z,10.43
2023-02-07T21:14:59.771Z,5.57
2023-02-07T21:17:26.898Z,7.70
2023-02-07T21:19:54.043Z,9.03
2023-02-07T21:22:23.908Z,9.63
2023-02-07T21:24:51.179Z,7.23
2023-02-07T21:27:18.322Z,6.10
2023-02-07T21:29:45.443Z,5.90
2023-02-07T21:32:12.606Z,7.80
2023-02-07T21:34:39.941Z,10.20
2023-02-07T21:37:07.052Z,12.47
2023-02-07T21:39:34.189Z,10.00
2023-02-07T21:42:01.398Z,7.30
2023-02-07T21:44:29.354Z,6.77
2023-02-07T21:46:57.296Z,15.00
2023-02-07T21:49:24.645Z,7.80
2023-02-07T21:51:53.776Z,6.93
2023-02-07T21:54:21.544Z,6.63
2023-02-07T21:56:50.907Z,6.10
2023-02-07T21:59:20.030Z,6.23
2023-02-07T22:01:47.403Z,8.20
2023-02-07T22:04:15.102Z,6.00
2023-02-07T22:06:44.134Z,7.33
2023-02-07T22:09:16.399Z,5.70
2023-02-07T22:11:43.959Z,7.43
2023-02-07T22:14:12.897Z,6.60
2023-02-07T22:16:40.295Z,5.13
2023-02-07T22:19:10.743Z,10.57
2023-02-07T22:21:38.224Z,5.40
2023-02-07T22:24:06.414Z,6.60
2023-02-07T22:26:34.556Z,9.43
2023-02-07T22:29:02.967Z,6.07
2023-02-07T22:31:32.036Z,6.93
2023-02-07T22:34:06.220Z,5.10
2023-02-07T22:36:34.883Z,12.50
2023-02-07T22:39:03.806Z,8.00
2023-02-07T22:41:31.429Z,5.83
2023-02-07T22:44:01.219Z,6.93
2023-02-07T22:46:29.644Z,7.83
2023-02-07T22:48:57.004Z,8.23
2023-02-07T22:51:30.316Z,9.23
2023-02-07T22:53:59.937Z,9.67
2023-02-07T22:56:28.023Z,13.27
2023-02-07T22:58:55.775Z,9.03
2023-02-07T23:01:28.722Z,9.67
2023-02-07T23:03:56.831Z,10.07
2023-02-07T23:06:25.256Z,9.20
2023-02-07T23:08:53.256Z,8.50
2023-02-07T23:11:22.843Z,7.37
2023-02-07T23:13:51.431Z,8.50
2023-02-07T23:16:24.715Z,7.07
2023-02-07T23:18:56.230Z,8.40
2023-02-07T23:21:24.889Z,6.13
2023-02-07T23:23:52.632Z,8.93
2023-02-07T23:26:22.657Z,7.00
2023-02-07T23:28:50.545Z,11.77
2023-02-07T23:31:20.364Z,11.97
2023-02-07T23:33:47.876Z,9.70
2023-02-07T23:36:17.631Z,8.90
2023-02-07T23:38:46.159Z,9.77
2023-02-07T23:41:13.730Z,8.63
2023-02-07T23:43:41.130Z,9.67
2023-02-07T23:46:09.212Z,9.77
2023-02-07T23:48:38.532Z,9.87
2023-02-07T23:51:06.982Z,9.40
2023-02-07T23:53:34.499Z,8.07
2023-02-07T23:56:03.189Z,8.40
2023-02-07T23:58:30.365Z,8.30
